sensor_id;sensor_type;location;lat;lon;timestamp;P1;durP1;ratioP1;P2;durP2;ratioP2
33810;SDS011;20119;48.334;16.206;2022-11-23T00:00:15;71.45;;;40.70;;
33810;SDS011;20119;48.334;16.206;2022-11-23T00:02:44;70.40;;;40.15;;
33810;SDS011;20119;48.334;16.206;2022-11-23T00:05:10;66.18;;;37.67;;
33810;SDS011;20119;48.334;16.206;2022-11-23T00:07:37;64.07;;;37.88;;
33810;SDS011;20119;48.334;16.206;2022-11-23T00:12:40;61.67;;;34.97;;
33810;SDS011;20119;48.334;16.206;2022-11-23T00:15:07;57.65;;;34.25;;
33810;SDS011;20119;48.334;16.206;2022-11-23T00:20:12;58.67;;;34.72;;
33810;SDS011;20119;48.334;16.206;2022-11-23T00:25:24;62.15;;;35.55;;
33810;SDS011;20119;48.334;16.206;2022-11-23T00:27:51;59.92;;;33.80;;
33810;SDS011;20119;48.334;16.206;2022-11-23T00:30:18;60.70;;;35.33;;
33810;SDS011;20119;48.334;16.206;2022-11-23T00:32:45;64.22;;;35.67;;
33810;SDS011;20119;48.334;16.206;2022-11-23T00:35:13;61.15;;;35.55;;
33810;SDS011;20119;48.334;16.206;2022-11-23T00:37:40;63.83;;;35.72;;
33810;SDS011;20119;48.334;16.206;2022-11-23T00:40:07;63.55;;;35.40;;
33810;SDS011;20119;48.334;16.206;2022-11-23T00:42:35;62.65;;;35.65;;
33810;SDS011;20119;48.334;16.206;2022-11-23T00:45:02;62.55;;;36.42;;
33810;SDS011;20119;48.334;16.206;2022-11-23T00:47:29;60.42;;;35.33;;
33810;SDS011;20119;48.334;16.206;2022-11-23T00:52:33;61.65;;;35.28;;
33810;SDS011;20119;48.334;16.206;2022-11-23T01:00:10;61.50;;;33.85;;
33810;SDS011;20119;48.334;16.206;2022-11-23T01:02:38;63.45;;;34.80;;
33810;SDS011;20119;48.334;16.206;2022-11-23T01:05:05;55.03;;;33.72;;
33810;SDS011;20119;48.334;16.206;2022-11-23T01:07:34;59.13;;;34.40;;
33810;SDS011;20119;48.334;16.206;2022-11-23T01:10:00;57.72;;;33.38;;
33810;SDS011;20119;48.334;16.206;2022-11-23T01:15:03;59.17;;;34.35;;
33810;SDS011;20119;48.334;16.206;2022-11-23T01:17:30;62.08;;;34.83;;
33810;SDS011;20119;48.334;16.206;2022-11-23T01:22:34;56.95;;;34.92;;
33810;SDS011;20119;48.334;16.206;2022-11-23T01:27:36;58.88;;;33.40;;
33810;SDS011;20119;48.334;16.206;2022-11-23T01:30:03;56.38;;;32.03;;
33810;SDS011;20119;48.334;16.206;2022-11-23T01:32:31;51.65;;;30.30;;
33810;SDS011;20119;48.334;16.206;2022-11-23T01:34:58;48.92;;;29.40;;
33810;SDS011;20119;48.334;16.206;2022-11-23T01:37:25;49.28;;;28.40;;
33810;SDS011;20119;48.334;16.206;2022-11-23T01:39:53;42.17;;;26.08;;
33810;SDS011;20119;48.334;16.206;2022-11-23T01:48:13;43.28;;;26.38;;
33810;SDS011;20119;48.334;16.206;2022-11-23T01:53:11;42.72;;;25.40;;
33810;SDS011;20119;48.334;16.206;2022-11-23T01:58:15;43.35;;;26.23;;
33810;SDS011;20119;48.334;16.206;2022-11-23T02:03:21;44.85;;;27.17;;
33810;SDS011;20119;48.334;16.206;2022-11-23T02:05:48;43.72;;;27.95;;
33810;SDS011;20119;48.334;16.206;2022-11-23T02:08:23;41.53;;;27.00;;
33810;SDS011;20119;48.334;16.206;2022-11-23T02:10:51;43.17;;;27.05;;
33810;SDS011;20119;48.334;16.206;2022-11-23T02:18:28;41.42;;;26.63;;
33810;SDS011;20119;48.334;16.206;2022-11-23T02:23:28;40.50;;;24.42;;
33810;SDS011;20119;48.334;16.206;2022-11-23T02:28:34;41.90;;;25.88;;
33810;SDS011;20119;48.334;16.206;2022-11-23T02:31:05;40.45;;;26.00;;
33810;SDS011;20119;48.334;16.206;2022-11-23T02:33:31;39.10;;;25.88;;
33810;SDS011;20119;48.334;16.206;2022-11-23T02:35:59;39.35;;;24.52;;
33810;SDS011;20119;48.334;16.206;2022-11-23T02:38:27;37.80;;;24.90;;
33810;SDS011;20119;48.334;16.206;2022-11-23T02:43:40;37.70;;;24.52;;
33810;SDS011;20119;48.334;16.206;2022-11-23T02:48:42;37.30;;;22.85;;
33810;SDS011;20119;48.334;16.206;2022-11-23T02:51:09;36.25;;;24.83;;
33810;SDS011;20119;48.334;16.206;2022-11-23T02:56:11;35.40;;;24.08;;
33810;SDS011;20119;48.334;16.206;2022-11-23T03:01:15;37.28;;;24.20;;
33810;SDS011;20119;48.334;16.206;2022-11-23T03:06:17;34.28;;;23.25;;
33810;SDS011;20119;48.334;16.206;2022-11-23T03:08:44;37.80;;;25.17;;
33810;SDS011;20119;48.334;16.206;2022-11-23T03:11:11;36.67;;;24.27;;
33810;SDS011;20119;48.334;16.206;2022-11-23T03:16:14;37.33;;;23.80;;
33810;SDS011;20119;48.334;16.206;2022-11-23T03:21:17;37.13;;;24.95;;
33810;SDS011;20119;48.334;16.206;2022-11-23T03:23:44;37.22;;;24.55;;
33810;SDS011;20119;48.334;16.206;2022-11-23T03:33:58;33.15;;;22.27;;
33810;SDS011;20119;48.334;16.206;2022-11-23T03:36:25;32.03;;;22.77;;
33810;SDS011;20119;48.334;16.206;2022-11-23T03:38:52;34.83;;;23.67;;
33810;SDS011;20119;48.334;16.206;2022-11-23T03:43:54;33.00;;;22.60;;
33810;SDS011;20119;48.334;16.206;2022-11-23T03:46:21;33.42;;;22.42;;
33810;SDS011;20119;48.334;16.206;2022-11-23T03:48:48;34.17;;;22.58;;
33810;SDS011;20119;48.334;16.206;2022-11-23T03:51:16;36.78;;;22.83;;
33810;SDS011;20119;48.334;16.206;2022-11-23T03:58:54;36.08;;;25.02;;
33810;SDS011;20119;48.334;16.206;2022-11-23T04:01:21;38.13;;;24.83;;
33810;SDS011;20119;48.334;16.206;2022-11-23T04:03:48;41.08;;;24.23;;
33810;SDS011;20119;48.334;16.206;2022-11-23T04:06:16;37.95;;;23.85;;
33810;SDS011;20119;48.334;16.206;2022-11-23T04:08:43;37.95;;;24.08;;
33810;SDS011;20119;48.334;16.206;2022-11-23T04:11:10;40.25;;;25.63;;
33810;SDS011;20119;48.334;16.206;2022-11-23T04:13:37;41.38;;;25.45;;
33810;SDS011;20119;48.334;16.206;2022-11-23T04:18:39;44.83;;;26.45;;
33810;SDS011;20119;48.334;16.206;2022-11-23T04:21:06;43.58;;;26.13;;
33810;SDS011;20119;48.334;16.206;2022-11-23T04:23:34;42.83;;;25.55;;
33810;SDS011;20119;48.334;16.206;2022-11-23T04:26:01;41.65;;;25.80;;
33810;SDS011;20119;48.334;16.206;2022-11-23T04:28:28;41.40;;;26.15;;
33810;SDS011;20119;48.334;16.206;2022-11-23T04:30:55;39.38;;;25.52;;
33810;SDS011;20119;48.334;16.206;2022-11-23T04:33:23;39.33;;;24.48;;
33810;SDS011;20119;48.334;16.206;2022-11-23T04:35:50;39.22;;;24.13;;
33810;SDS011;20119;48.334;16.206;2022-11-23T04:38:17;38.63;;;24.05;;
33810;SDS011;20119;48.334;16.206;2022-11-23T04:40:46;37.72;;;23.05;;
33810;SDS011;20119;48.334;16.206;2022-11-23T04:48:51;34.28;;;21.77;;
33810;SDS011;20119;48.334;16.206;2022-11-23T04:51:18;34.13;;;22.33;;
33810;SDS011;20119;48.334;16.206;2022-11-23T05:06:43;25.10;;;17.33;;
33810;SDS011;20119;48.334;16.206;2022-11-23T05:11:40;23.55;;;16.85;;
33810;SDS011;20119;48.334;16.206;2022-11-23T05:24:33;20.85;;;14.93;;
33810;SDS011;20119;48.334;16.206;2022-11-23T05:27:03;19.48;;;14.73;;
33810;SDS011;20119;48.334;16.206;2022-11-23T05:34:50;19.80;;;14.50;;
33810;SDS011;20119;48.334;16.206;2022-11-23T05:37:18;20.27;;;14.82;;
33810;SDS011;20119;48.334;16.206;2022-11-23T05:39:46;17.88;;;13.82;;
33810;SDS011;20119;48.334;16.206;2022-11-23T05:42:13;18.45;;;14.30;;
33810;SDS011;20119;48.334;16.206;2022-11-23T05:44:40;17.63;;;14.27;;
33810;SDS011;20119;48.334;16.206;2022-11-23T05:47:07;19.83;;;14.80;;
33810;SDS011;20119;48.334;16.206;2022-11-23T05:49:34;18.17;;;13.52;;
33810;SDS011;20119;48.334;16.206;2022-11-23T05:52:00;17.60;;;13.40;;
33810;SDS011;20119;48.334;16.206;2022-11-23T05:54:27;19.65;;;13.98;;
33810;SDS011;20119;48.334;16.206;2022-11-23T05:56:57;18.25;;;13.85;;
33810;SDS011;20119;48.334;16.206;2022-11-23T05:59:24;19.75;;;14.00;;
33810;SDS011;20119;48.334;16.206;2022-11-23T06:09:47;17.55;;;13.30;;
33810;SDS011;20119;48.334;16.206;2022-11-23T06:12:16;18.00;;;14.00;;
33810;SDS011;20119;48.334;16.206;2022-11-23T06:14:42;17.30;;;13.85;;
33810;SDS011;20119;48.334;16.206;2022-11-23T06:17:09;17.85;;;13.73;;
33810;SDS011;20119;48.334;16.206;2022-11-23T06:19:36;17.38;;;13.63;;
33810;SDS011;20119;48.334;16.206;2022-11-23T06:22:03;17.40;;;13.63;;
33810;SDS011;20119;48.334;16.206;2022-11-23T06:32:18;18.83;;;13.82;;
33810;SDS011;20119;48.334;16.206;2022-11-23T06:34:44;18.52;;;13.88;;
33810;SDS011;20119;48.334;16.206;2022-11-23T06:44:57;17.10;;;13.52;;
33810;SDS011;20119;48.334;16.206;2022-11-23T06:47:26;16.48;;;12.75;;
33810;SDS011;20119;48.334;16.206;2022-11-23T06:49:53;15.38;;;12.50;;
33810;SDS011;20119;48.334;16.206;2022-11-23T06:52:20;16.13;;;12.40;;
33810;SDS011;20119;48.334;16.206;2022-11-23T06:54:47;15.85;;;12.68;;
33810;SDS011;20119;48.334;16.206;2022-11-23T06:57:14;17.75;;;12.43;;
33810;SDS011;20119;48.334;16.206;2022-11-23T06:59:40;15.95;;;12.38;;
33810;SDS011;20119;48.334;16.206;2022-11-23T07:02:09;17.23;;;12.85;;
33810;SDS011;20119;48.334;16.206;2022-11-23T07:04:37;15.90;;;12.45;;
33810;SDS011;20119;48.334;16.206;2022-11-23T07:07:06;16.70;;;12.68;;
33810;SDS011;20119;48.334;16.206;2022-11-23T07:09:33;14.88;;;12.25;;
33810;SDS011;20119;48.334;16.206;2022-11-23T07:12:00;16.20;;;13.02;;
33810;SDS011;20119;48.334;16.206;2022-11-23T07:16:57;16.35;;;12.43;;
33810;SDS011;20119;48.334;16.206;2022-11-23T07:19:24;15.57;;;12.70;;
33810;SDS011;20119;48.334;16.206;2022-11-23T07:21:52;15.63;;;13.07;;
33810;SDS011;20119;48.334;16.206;2022-11-23T07:24:19;17.67;;;12.57;;
33810;SDS011;20119;48.334;16.206;2022-11-23T07:26:46;17.58;;;13.43;;
33810;SDS011;20119;48.334;16.206;2022-11-23T07:29:13;17.10;;;13.43;;
33810;SDS011;20119;48.334;16.206;2022-11-23T07:34:15;15.70;;;12.77;;
33810;SDS011;20119;48.334;16.206;2022-11-23T07:36:42;15.32;;;12.65;;
33810;SDS011;20119;48.334;16.206;2022-11-23T07:39:10;14.80;;;12.20;;
33810;SDS011;20119;48.334;16.206;2022-11-23T07:41:38;16.30;;;12.85;;
33810;SDS011;20119;48.334;16.206;2022-11-23T07:44:05;17.17;;;13.07;;
33810;SDS011;20119;48.334;16.206;2022-11-23T07:46:32;18.10;;;13.18;;
33810;SDS011;20119;48.334;16.206;2022-11-23T07:48:59;14.40;;;12.02;;
33810;SDS011;20119;48.334;16.206;2022-11-23T07:51:26;15.43;;;12.30;;
33810;SDS011;20119;48.334;16.206;2022-11-23T08:06:51;14.23;;;11.25;;
33810;SDS011;20119;48.334;16.206;2022-11-23T08:09:19;13.13;;;10.75;;
33810;SDS011;20119;48.334;16.206;2022-11-23T08:11:46;12.93;;;10.82;;
33810;SDS011;20119;48.334;16.206;2022-11-23T08:14:13;14.57;;;11.55;;
33810;SDS011;20119;48.334;16.206;2022-11-23T08:16:40;15.98;;;11.77;;
33810;SDS011;20119;48.334;16.206;2022-11-23T08:19:06;15.45;;;11.95;;
33810;SDS011;20119;48.334;16.206;2022-11-23T08:21:34;14.23;;;11.70;;
33810;SDS011;20119;48.334;16.206;2022-11-23T08:24:02;15.23;;;12.07;;
33810;SDS011;20119;48.334;16.206;2022-11-23T08:29:04;14.90;;;11.60;;
33810;SDS011;20119;48.334;16.206;2022-11-23T08:31:31;16.05;;;11.65;;
33810;SDS011;20119;48.334;16.206;2022-11-23T08:36:34;14.32;;;10.95;;
33810;SDS011;20119;48.334;16.206;2022-11-23T08:39:03;13.32;;;11.07;;
33810;SDS011;20119;48.334;16.206;2022-11-23T08:41:30;12.65;;;10.50;;
33810;SDS011;20119;48.334;16.206;2022-11-23T08:43:57;12.13;;;10.10;;
33810;SDS011;20119;48.334;16.206;2022-11-23T08:46:24;11.43;;;10.13;;
33810;SDS011;20119;48.334;16.206;2022-11-23T08:48:51;12.93;;;10.70;;
33810;SDS011;20119;48.334;16.206;2022-11-23T08:51:17;16.02;;;11.43;;
33810;SDS011;20119;48.334;16.206;2022-11-23T08:56:23;13.98;;;10.57;;
33810;SDS011;20119;48.334;16.206;2022-11-23T08:58:50;12.75;;;10.85;;
33810;SDS011;20119;48.334;16.206;2022-11-23T09:01:17;13.15;;;10.65;;
33810;SDS011;20119;48.334;16.206;2022-11-23T09:03:44;15.07;;;11.65;;
33810;SDS011;20119;48.334;16.206;2022-11-23T09:06:11;14.48;;;11.40;;
33810;SDS011;20119;48.334;16.206;2022-11-23T09:08:38;16.55;;;12.05;;
33810;SDS011;20119;48.334;16.206;2022-11-23T09:11:05;16.48;;;11.77;;
33810;SDS011;20119;48.334;16.206;2022-11-23T09:13:37;12.57;;;10.02;;
33810;SDS011;20119;48.334;16.206;2022-11-23T09:16:04;12.95;;;10.98;;
33810;SDS011;20119;48.334;16.206;2022-11-23T09:18:32;12.93;;;10.50;;
33810;SDS011;20119;48.334;16.206;2022-11-23T09:23:36;14.27;;;11.20;;
33810;SDS011;20119;48.334;16.206;2022-11-23T09:26:03;14.63;;;10.90;;
33810;SDS011;20119;48.334;16.206;2022-11-23T09:28:31;14.27;;;11.43;;
33810;SDS011;20119;48.334;16.206;2022-11-23T09:31:01;13.70;;;11.30;;
33810;SDS011;20119;48.334;16.206;2022-11-23T09:33:29;15.48;;;11.88;;
33810;SDS011;20119;48.334;16.206;2022-11-23T09:35:56;15.38;;;11.30;;
33810;SDS011;20119;48.334;16.206;2022-11-23T09:41:01;13.75;;;11.18;;
33810;SDS011;20119;48.334;16.206;2022-11-23T09:43:43;14.23;;;10.82;;
33810;SDS011;20119;48.334;16.206;2022-11-23T09:46:19;12.75;;;10.80;;
33810;SDS011;20119;48.334;16.206;2022-11-23T09:51:34;14.75;;;11.02;;
33810;SDS011;20119;48.334;16.206;2022-11-23T09:54:03;13.50;;;10.83;;
33810;SDS011;20119;48.334;16.206;2022-11-23T09:56:36;13.63;;;11.02;;
33810;SDS011;20119;48.334;16.206;2022-11-23T10:01:42;13.13;;;10.75;;
33810;SDS011;20119;48.334;16.206;2022-11-23T10:04:09;13.50;;;10.60;;
33810;SDS011;20119;48.334;16.206;2022-11-23T10:06:44;14.82;;;11.27;;
33810;SDS011;20119;48.334;16.206;2022-11-23T10:14:29;14.48;;;10.52;;
33810;SDS011;20119;48.334;16.206;2022-11-23T10:17:11;13.25;;;10.85;;
33810;SDS011;20119;48.334;16.206;2022-11-23T10:19:57;13.32;;;10.85;;
33810;SDS011;20119;48.334;16.206;2022-11-23T10:22:38;12.63;;;10.02;;
33810;SDS011;20119;48.334;16.206;2022-11-23T10:25:14;12.30;;;10.20;;
33810;SDS011;20119;48.334;16.206;2022-11-23T10:27:43;11.65;;;9.52;;
33810;SDS011;20119;48.334;16.206;2022-11-23T10:32:43;11.93;;;9.38;;
33810;SDS011;20119;48.334;16.206;2022-11-23T10:35:15;11.55;;;9.00;;
33810;SDS011;20119;48.334;16.206;2022-11-23T10:37:44;11.38;;;9.65;;
33810;SDS011;20119;48.334;16.206;2022-11-23T10:40:13;11.23;;;9.55;;
33810;SDS011;20119;48.334;16.206;2022-11-23T10:45:18;11.85;;;9.68;;
33810;SDS011;20119;48.334;16.206;2022-11-23T10:47:52;11.05;;;8.93;;
33810;SDS011;20119;48.334;16.206;2022-11-23T10:55:27;11.20;;;8.63;;
33810;SDS011;20119;48.334;16.206;2022-11-23T11:00:31;10.57;;;8.85;;
33810;SDS011;20119;48.334;16.206;2022-11-23T11:02:59;12.50;;;9.00;;
33810;SDS011;20119;48.334;16.206;2022-11-23T11:05:31;12.02;;;8.68;;
33810;SDS011;20119;48.334;16.206;2022-11-23T11:08:00;10.73;;;8.60;;
33810;SDS011;20119;48.334;16.206;2022-11-23T11:10:39;11.30;;;8.75;;
33810;SDS011;20119;48.334;16.206;2022-11-23T11:15:45;10.23;;;8.68;;
33810;SDS011;20119;48.334;16.206;2022-11-23T11:18:19;10.27;;;8.35;;
33810;SDS011;20119;48.334;16.206;2022-11-23T11:20:46;9.80;;;8.20;;
33810;SDS011;20119;48.334;16.206;2022-11-23T11:23:20;9.55;;;8.00;;
33810;SDS011;20119;48.334;16.206;2022-11-23T11:28:24;9.15;;;7.55;;
33810;SDS011;20119;48.334;16.206;2022-11-23T11:30:58;9.43;;;7.80;;
33810;SDS011;20119;48.334;16.206;2022-11-23T11:33:44;8.70;;;7.63;;
33810;SDS011;20119;48.334;16.206;2022-11-23T11:36:26;9.48;;;7.55;;
33810;SDS011;20119;48.334;16.206;2022-11-23T11:38:57;10.43;;;8.80;;
33810;SDS011;20119;48.334;16.206;2022-11-23T11:41:34;12.55;;;9.32;;
33810;SDS011;20119;48.334;16.206;2022-11-23T11:44:04;11.93;;;9.40;;
33810;SDS011;20119;48.334;16.206;2022-11-23T11:46:35;10.77;;;8.73;;
33810;SDS011;20119;48.334;16.206;2022-11-23T11:49:07;12.85;;;9.57;;
33810;SDS011;20119;48.334;16.206;2022-11-23T11:51:40;11.60;;;9.20;;
33810;SDS011;20119;48.334;16.206;2022-11-23T11:54:12;11.13;;;9.18;;
33810;SDS011;20119;48.334;16.206;2022-11-23T11:56:46;12.38;;;8.98;;
33810;SDS011;20119;48.334;16.206;2022-11-23T11:59:18;10.65;;;8.73;;
33810;SDS011;20119;48.334;16.206;2022-11-23T12:01:51;10.63;;;8.50;;
33810;SDS011;20119;48.334;16.206;2022-11-23T12:09:36;10.13;;;8.50;;
33810;SDS011;20119;48.334;16.206;2022-11-23T12:12:09;15.85;;;10.07;;
33810;SDS011;20119;48.334;16.206;2022-11-23T12:17:32;11.10;;;9.13;;
33810;SDS011;20119;48.334;16.206;2022-11-23T12:20:10;11.75;;;9.30;;
33810;SDS011;20119;48.334;16.206;2022-11-23T12:27:59;11.60;;;9.68;;
33810;SDS011;20119;48.334;16.206;2022-11-23T12:35:57;12.70;;;9.98;;
33810;SDS011;20119;48.334;16.206;2022-11-23T12:38:35;13.82;;;11.02;;
33810;SDS011;20119;48.334;16.206;2022-11-23T12:41:15;12.20;;;10.15;;
33810;SDS011;20119;48.334;16.206;2022-11-23T12:44:20;11.45;;;9.75;;
33810;SDS011;20119;48.334;16.206;2022-11-23T12:49:35;12.63;;;9.75;;
33810;SDS011;20119;48.334;16.206;2022-11-23T12:54:43;12.48;;;10.25;;
33810;SDS011;20119;48.334;16.206;2022-11-23T12:57:17;12.88;;;10.05;;
33810;SDS011;20119;48.334;16.206;2022-11-23T12:59:50;13.10;;;10.23;;
33810;SDS011;20119;48.334;16.206;2022-11-23T13:07:32;13.38;;;11.25;;
33810;SDS011;20119;48.334;16.206;2022-11-23T13:13:15;14.05;;;11.23;;
33810;SDS011;20119;48.334;16.206;2022-11-23T13:16:13;14.50;;;11.57;;
33810;SDS011;20119;48.334;16.206;2022-11-23T13:18:52;15.23;;;11.98;;
33810;SDS011;20119;48.334;16.206;2022-11-23T13:21:28;15.50;;;12.13;;
33810;SDS011;20119;48.334;16.206;2022-11-23T13:24:01;14.70;;;11.35;;
33810;SDS011;20119;48.334;16.206;2022-11-23T13:26:28;13.57;;;11.00;;
33810;SDS011;20119;48.334;16.206;2022-11-23T13:31:33;13.85;;;11.55;;
33810;SDS011;20119;48.334;16.206;2022-11-23T13:34:00;14.15;;;11.50;;
33810;SDS011;20119;48.334;16.206;2022-11-23T13:36:35;14.27;;;11.45;;
33810;SDS011;20119;48.334;16.206;2022-11-23T13:55:18;14.20;;;11.52;;
33810;SDS011;20119;48.334;16.206;2022-11-23T14:05:53;15.38;;;12.63;;
33810;SDS011;20119;48.334;16.206;2022-11-23T14:11:01;15.75;;;12.40;;
33810;SDS011;20119;48.334;16.206;2022-11-23T14:16:03;16.23;;;13.02;;
33810;SDS011;20119;48.334;16.206;2022-11-23T14:18:46;15.68;;;12.98;;
33810;SDS011;20119;48.334;16.206;2022-11-23T14:26:41;16.40;;;12.32;;
33810;SDS011;20119;48.334;16.206;2022-11-23T14:29:25;16.60;;;12.20;;
33810;SDS011;20119;48.334;16.206;2022-11-23T14:32:00;15.23;;;12.25;;
33810;SDS011;20119;48.334;16.206;2022-11-23T14:37:16;16.73;;;12.05;;
33810;SDS011;20119;48.334;16.206;2022-11-23T14:39:54;12.60;;;11.07;;
33810;SDS011;20119;48.334;16.206;2022-11-23T14:45:04;15.48;;;11.88;;
33810;SDS011;20119;48.334;16.206;2022-11-23T14:47:37;14.73;;;11.93;;
33810;SDS011;20119;48.334;16.206;2022-11-23T14:55:04;15.60;;;12.05;;
33810;SDS011;20119;48.334;16.206;2022-11-23T15:02:44;14.45;;;11.88;;
33810;SDS011;20119;48.334;16.206;2022-11-23T15:05:11;16.30;;;12.23;;
33810;SDS011;20119;48.334;16.206;2022-11-23T15:10:27;16.20;;;12.45;;
33810;SDS011;20119;48.334;16.206;2022-11-23T15:23:22;16.10;;;12.07;;
33810;SDS011;20119;48.334;16.206;2022-11-23T15:28:28;16.55;;;12.10;;
33810;SDS011;20119;48.334;16.206;2022-11-23T15:30:56;17.25;;;13.05;;
33810;SDS011;20119;48.334;16.206;2022-11-23T15:33:23;15.70;;;12.50;;
33810;SDS011;20119;48.334;16.206;2022-11-23T15:35:50;14.07;;;11.20;;
33810;SDS011;20119;48.334;16.206;2022-11-23T15:38:19;15.68;;;12.57;;
33810;SDS011;20119;48.334;16.206;2022-11-23T15:40:48;18.08;;;13.52;;
33810;SDS011;20119;48.334;16.206;2022-11-23T15:43:16;18.25;;;13.23;;
33810;SDS011;20119;48.334;16.206;2022-11-23T15:48:20;17.27;;;13.02;;
33810;SDS011;20119;48.334;16.206;2022-11-23T15:50:52;18.23;;;13.70;;
33810;SDS011;20119;48.334;16.206;2022-11-23T15:53:23;18.00;;;13.75;;
33810;SDS011;20119;48.334;16.206;2022-11-23T15:55:53;19.10;;;14.98;;
33810;SDS011;20119;48.334;16.206;2022-11-23T15:58:23;36.95;;;25.98;;
33810;SDS011;20119;48.334;16.206;2022-11-23T16:00:52;23.83;;;15.63;;
33810;SDS011;20119;48.334;16.206;2022-11-23T16:03:27;18.73;;;14.38;;
33810;SDS011;20119;48.334;16.206;2022-11-23T16:13:37;21.10;;;14.45;;
33810;SDS011;20119;48.334;16.206;2022-11-23T16:21:11;18.13;;;14.00;;
33810;SDS011;20119;48.334;16.206;2022-11-23T16:23:41;21.90;;;15.63;;
33810;SDS011;20119;48.334;16.206;2022-11-23T16:26:11;18.30;;;14.18;;
33810;SDS011;20119;48.334;16.206;2022-11-23T16:28:46;18.27;;;14.48;;
33810;SDS011;20119;48.334;16.206;2022-11-23T16:33:50;16.58;;;13.93;;
33810;SDS011;20119;48.334;16.206;2022-11-23T16:38:52;18.50;;;13.27;;
33810;SDS011;20119;48.334;16.206;2022-11-23T16:44:22;15.27;;;12.57;;
33810;SDS011;20119;48.334;16.206;2022-11-23T16:46:49;18.98;;;13.98;;
33810;SDS011;20119;48.334;16.206;2022-11-23T16:49:17;17.80;;;14.30;;
33810;SDS011;20119;48.334;16.206;2022-11-23T16:51:46;18.38;;;13.73;;
33810;SDS011;20119;48.334;16.206;2022-11-23T17:02:02;25.05;;;17.35;;
33810;SDS011;20119;48.334;16.206;2022-11-23T17:04:29;20.98;;;16.25;;
33810;SDS011;20119;48.334;16.206;2022-11-23T17:06:56;21.20;;;16.40;;
33810;SDS011;20119;48.334;16.206;2022-11-23T17:09:23;22.17;;;16.55;;
33810;SDS011;20119;48.334;16.206;2022-11-23T17:14:25;26.55;;;16.10;;
33810;SDS011;20119;48.334;16.206;2022-11-23T17:16:52;22.45;;;16.85;;
33810;SDS011;20119;48.334;16.206;2022-11-23T17:24:31;22.13;;;16.30;;
33810;SDS011;20119;48.334;16.206;2022-11-23T17:34:44;22.48;;;17.42;;
33810;SDS011;20119;48.334;16.206;2022-11-23T17:37:14;26.05;;;18.35;;
33810;SDS011;20119;48.334;16.206;2022-11-23T17:44:55;26.83;;;18.35;;
33810;SDS011;20119;48.334;16.206;2022-11-23T17:47:23;25.75;;;18.83;;
33810;SDS011;20119;48.334;16.206;2022-11-23T17:49:52;25.33;;;18.30;;
33810;SDS011;20119;48.334;16.206;2022-11-23T17:59:56;26.85;;;18.75;;
33810;SDS011;20119;48.334;16.206;2022-11-23T18:02:23;26.95;;;19.38;;
33810;SDS011;20119;48.334;16.206;2022-11-23T18:07:25;28.30;;;19.70;;
33810;SDS011;20119;48.334;16.206;2022-11-23T18:09:52;25.38;;;19.60;;
33810;SDS011;20119;48.334;16.206;2022-11-23T18:12:20;30.02;;;19.98;;
33810;SDS011;20119;48.334;16.206;2022-11-23T18:14:47;28.08;;;20.45;;
33810;SDS011;20119;48.334;16.206;2022-11-23T18:17:15;26.60;;;19.77;;
33810;SDS011;20119;48.334;16.206;2022-11-23T18:19:42;29.95;;;20.42;;
33810;SDS011;20119;48.334;16.206;2022-11-23T18:24:45;30.35;;;20.38;;
33810;SDS011;20119;48.334;16.206;2022-11-23T18:27:12;28.70;;;19.70;;
33810;SDS011;20119;48.334;16.206;2022-11-23T18:29:52;32.10;;;21.75;;
33810;SDS011;20119;48.334;16.206;2022-11-23T18:32:20;28.20;;;20.17;;
33810;SDS011;20119;48.334;16.206;2022-11-23T18:37:23;29.63;;;21.20;;
33810;SDS011;20119;48.334;16.206;2022-11-23T18:39:50;29.50;;;21.10;;
33810;SDS011;20119;48.334;16.206;2022-11-23T18:42:16;29.85;;;21.17;;
33810;SDS011;20119;48.334;16.206;2022-11-23T18:44:44;30.65;;;21.08;;
33810;SDS011;20119;48.334;16.206;2022-11-23T18:47:10;31.45;;;22.10;;
33810;SDS011;20119;48.334;16.206;2022-11-23T18:59:44;33.85;;;23.02;;
33810;SDS011;20119;48.334;16.206;2022-11-23T19:02:11;31.23;;;22.80;;
33810;SDS011;20119;48.334;16.206;2022-11-23T19:04:38;35.67;;;22.83;;
33810;SDS011;20119;48.334;16.206;2022-11-23T19:07:05;34.40;;;23.63;;
33810;SDS011;20119;48.334;16.206;2022-11-23T19:09:32;38.47;;;25.83;;
33810;SDS011;20119;48.334;16.206;2022-11-23T19:11:58;36.40;;;24.30;;
33810;SDS011;20119;48.334;16.206;2022-11-23T19:14:26;35.03;;;23.80;;
33810;SDS011;20119;48.334;16.206;2022-11-23T19:16:54;32.00;;;23.23;;
33810;SDS011;20119;48.334;16.206;2022-11-23T19:19:21;34.55;;;23.98;;
33810;SDS011;20119;48.334;16.206;2022-11-23T19:21:48;35.80;;;24.02;;
33810;SDS011;20119;48.334;16.206;2022-11-23T19:24:15;36.30;;;24.15;;
33810;SDS011;20119;48.334;16.206;2022-11-23T19:26:42;37.33;;;24.88;;
33810;SDS011;20119;48.334;16.206;2022-11-23T19:29:09;38.00;;;24.92;;
33810;SDS011;20119;48.334;16.206;2022-11-23T19:31:37;40.95;;;26.70;;
33810;SDS011;20119;48.334;16.206;2022-11-23T19:34:06;39.95;;;25.90;;
33810;SDS011;20119;48.334;16.206;2022-11-23T19:36:34;36.80;;;24.88;;
33810;SDS011;20119;48.334;16.206;2022-11-23T19:39:02;40.65;;;27.15;;
33810;SDS011;20119;48.334;16.206;2022-11-23T19:46:38;40.53;;;27.65;;
33810;SDS011;20119;48.334;16.206;2022-11-23T19:49:06;39.25;;;26.20;;
33810;SDS011;20119;48.334;16.206;2022-11-23T19:54:06;40.15;;;26.48;;
33810;SDS011;20119;48.334;16.206;2022-11-23T19:56:34;43.85;;;27.42;;
33810;SDS011;20119;48.334;16.206;2022-11-23T19:59:01;39.53;;;27.05;;
33810;SDS011;20119;48.334;16.206;2022-11-23T20:06:40;38.78;;;26.98;;
33810;SDS011;20119;48.334;16.206;2022-11-23T22:56:15;39.83;;;25.55;;
33810;SDS011;20119;48.334;16.206;2022-11-23T23:03:54;36.83;;;24.52;;
33810;SDS011;20119;48.334;16.206;2022-11-23T23:08:59;35.92;;;23.73;;
33810;SDS011;20119;48.334;16.206;2022-11-23T23:16:30;39.13;;;25.27;;
33810;SDS011;20119;48.334;16.206;2022-11-23T23:18:58;37.97;;;24.98;;
33810;SDS011;20119;48.334;16.206;2022-11-23T23:21:26;40.03;;;25.25;;
33810;SDS011;20119;48.334;16.206;2022-11-23T23:26:27;41.05;;;26.50;;
33810;SDS011;20119;48.334;16.206;2022-11-23T23:31:23;39.17;;;26.17;;
33810;SDS011;20119;48.334;16.206;2022-11-23T23:33:52;38.72;;;25.25;;
33810;SDS011;20119;48.334;16.206;2022-11-23T23:38:54;40.05;;;24.75;;
33810;SDS011;20119;48.334;16.206;2022-11-23T23:41:22;40.22;;;25.58;;
33810;SDS011;20119;48.334;16.206;2022-11-23T23:43:49;38.90;;;25.65;;
33810;SDS011;20119;48.334;16.206;2022-11-23T23:46:16;36.22;;;24.42;;
33810;SDS011;20119;48.334;16.206;2022-11-23T23:48:43;39.55;;;24.88;;
